Time;durP1;ratioP1;P1;durP2;ratioP2;P2;SDS_P1;SDS_P2;PMS_P1;PMS_P2;Temp;Humidity;BMP_temperature;BMP_pressure;BME280_temperature;BME280_humidity;BME280_pressure;Samples;Min_cycle;Max_cycle;Signal;HPM_P1;HPM_P2
2022/04/04 00:02:48;;;;;;;;;;;3.20;97.80;;;;;;10369621;28;84445;-51
2022/04/04 00:07:49;;;;;;;;;;;3.20;99.90;;;;;;10367706;28;94600;-51
2022/04/04 00:12:49;;;;;;;;;;;3.20;99.90;;;;;;10368738;28;84823;-50
2022/04/04 00:17:50;;;;;;;;;;;3.20;68.70;;;;;;10348572;28;102988;-53
2022/04/04 00:22:51;;;;;;;;;;;3.20;93.10;;;;;;10368693;28;84002;-55
2022/04/04 00:27:51;;;;;;;;;;;3.10;90.60;;;;;;10349327;28;98143;-54
2022/04/04 00:32:52;;;;;;;;;;;3.10;99.90;;;;;;10353950;28;84354;-51
2022/04/04 00:37:53;;;;;;;;;;;3.00;99.90;;;;;;10351150;28;103979;-50
2022/04/04 00:42:53;;;;;;;;;;;2.90;99.90;;;;;;10375010;28;83999;-50
2022/04/04 00:47:53;;;;;;;;;;;2.90;99.90;;;;;;10374376;28;100979;-52
2022/04/04 00:52:54;;;;;;;;;;;3.00;99.90;;;;;;10374817;28;97151;-50
2022/04/04 00:57:55;;;;;;;;;;;3.10;99.90;;;;;;10373832;28;84936;-52
2022/04/04 01:02:56;;;;;;;;;;;3.00;99.90;;;;;;10374958;28;84191;-49
2022/04/04 01:07:56;;;;;;;;;;;3.00;99.90;;;;;;10373935;28;84121;-51
2022/04/04 01:12:57;;;;;;;;;;;3.00;99.90;;;;;;10406449;22;84482;-58
2022/04/04 01:17:59;;;;;;;;;;;2.90;99.90;;;;;;10414409;28;85080;-58
2022/04/04 01:23:00;;;;;;;;;;;2.90;99.90;;;;;;10414144;28;84872;-59
2022/04/04 01:28:01;;;;;;;;;;;2.90;99.90;;;;;;10413918;28;84327;-55
2022/04/04 01:33:02;;;;;;;;;;;2.90;99.90;;;;;;10414227;28;84126;-57
2022/04/04 01:38:03;;;;;;;;;;;2.90;99.90;;;;;;10413374;28;85126;-57
2022/04/04 01:43:04;;;;;;;;;;;2.80;99.90;;;;;;10413866;28;84831;-58
2022/04/04 01:48:05;;;;;;;;;;;2.80;99.90;;;;;;10413064;28;84338;-59
2022/04/04 01:58:25;;;;;;;;;;;2.80;99.90;;;;;;10412169;28;84947;-58
2022/04/04 02:03:25;;;;;;;;;;;2.70;99.90;;;;;;10394290;28;86006;-56
2022/04/04 02:08:26;;;;;;;;;;;2.70;99.90;;;;;;10393456;28;85764;-55
2022/04/04 02:13:27;;;;;;;;;;;2.80;99.90;;;;;;10411850;28;84676;-55
2022/04/04 02:18:28;;;;;;;;;;;2.80;99.90;;;;;;10411774;28;84909;-56
2022/04/04 02:23:29;;;;;;;;;;;2.80;99.90;;;;;;10412780;28;84223;-55
2022/04/04 02:28:30;;;;;;;;;;;2.70;99.90;;;;;;10411996;28;84086;-59
2022/04/04 02:33:31;;;;;;;;;;;2.70;99.90;;;;;;10412410;28;84093;-58
2022/04/04 02:38:31;;;;;;;;;;;2.70;99.90;;;;;;10393122;28;87531;-59
2022/04/04 02:43:32;;;;;;;;;;;2.70;99.90;;;;;;10412608;28;84123;-58
2022/04/04 02:48:32;;;;;;;;;;;2.80;99.90;;;;;;10410806;28;85894;-57
2022/04/04 02:53:33;;;;;;;;;;;2.70;99.90;;;;;;10409840;28;84917;-57
2022/04/04 02:58:33;;;;;;;;;;;2.80;99.90;;;;;;10407152;28;84928;-56
2022/04/04 03:03:34;;;;;;;;;;;2.80;99.90;;;;;;10410935;28;84180;-57
2022/04/04 03:08:36;;;;;;;;;;;2.80;99.90;;;;;;10410269;28;84733;-60
2022/04/04 03:13:36;;;;;;;;;;;2.80;99.90;;;;;;10410009;28;84854;-57
2022/04/04 03:18:37;;;;;;;;;;;2.70;99.90;;;;;;10409713;28;84138;-57
2022/04/04 03:23:39;;;;;;;;;;;2.60;99.90;;;;;;10409883;28;84130;-57
2022/04/04 03:28:40;;;;;;;;;;;2.70;99.90;;;;;;10407683;28;86017;-58
2022/04/04 03:33:43;;;;;;;;;;;2.70;99.90;;;;;;10409606;28;84807;-58
2022/04/04 03:38:44;;;;;;;;;;;2.70;99.90;;;;;;10407752;28;84076;-58
2022/04/04 03:43:44;;;;;;;;;;;2.60;99.90;;;;;;10407502;28;85906;-55
2022/04/04 03:48:45;;;;;;;;;;;2.60;99.90;;;;;;10407407;28;85953;-58
2022/04/04 03:53:45;;;;;;;;;;;2.70;99.90;;;;;;10408791;28;84887;-57
2022/04/04 03:58:46;;;;;;;;;;;2.70;99.90;;;;;;10408314;28;84124;-57
2022/04/04 04:03:47;;;;;;;;;;;2.70;99.90;;;;;;10403294;28;85858;-55
2022/04/04 04:08:47;;;;;;;;;;;2.80;99.90;;;;;;10439665;28;87603;-59
2022/04/04 04:13:48;;;;;;;;;;;2.80;69.70;;;;;;10399084;28;85147;-58
2022/04/04 04:18:49;;;;;;;;;;;2.90;27.40;;;;;;10409327;28;84281;-58
2022/04/04 04:23:50;;;;;;;;;;;2.80;14.00;;;;;;10389329;28;84858;-58
2022/04/04 04:28:51;;;;;;;;;;;2.90;1.00;;;;;;10406988;28;84904;-57
2022/04/04 04:33:51;;;;;;;;;;;2.90;1.00;;;;;;10406833;28;84102;-57
2022/04/04 04:38:52;;;;;;;;;;;3.00;1.00;;;;;;10407701;28;84980;-59
2022/04/04 04:43:53;;;;;;;;;;;3.00;1.00;;;;;;10408184;28;84297;-59
2022/04/04 04:48:53;;;;;;;;;;;3.00;1.00;;;;;;10388143;28;86081;-55
2022/04/04 04:53:54;;;;;;;;;;;3.10;1.00;;;;;;10407154;28;87139;-59
2022/04/04 04:58:54;;;;;;;;;;;3.10;1.00;;;;;;10406471;28;84926;-57
2022/04/04 05:03:55;;;;;;;;;;;3.20;1.00;;;;;;10407162;28;85444;-60
2022/04/04 05:08:58;;;;;;;;;;;3.30;1.00;;;;;;10411314;28;84886;-59
2022/04/04 05:13:59;;;;;;;;;;;3.30;1.00;;;;;;10385185;28;85337;-59
2022/04/04 05:19:00;;;;;;;;;;;3.40;1.00;;;;;;10410266;28;84812;-58
2022/04/04 05:24:00;;;;;;;;;;;3.50;1.00;;;;;;10412100;28;94316;-60
2022/04/04 05:29:01;;;;;;;;;;;3.50;1.00;;;;;;10394740;28;85270;-58
2022/04/04 05:34:04;;;;;;;;;;;3.50;1.00;;;;;;10413419;28;84830;-58
2022/04/04 05:39:05;;;;;;;;;;;3.60;1.00;;;;;;10412341;28;84900;-57
2022/04/04 05:44:06;;;;;;;;;;;3.70;1.00;;;;;;10412939;28;84249;-57
2022/04/04 05:49:07;;;;;;;;;;;3.80;1.00;;;;;;10421310;28;85006;-59
2022/04/04 05:54:09;;;;;;;;;;;3.80;1.00;;;;;;10394018;28;85104;-57
2022/04/04 05:59:09;;;;;;;;;;;3.90;1.00;;;;;;10405968;28;86227;-58
2022/04/04 06:04:10;;;;;;;;;;;3.90;1.00;;;;;;10407544;28;84745;-61
2022/04/04 06:09:10;;;;;;;;;;;3.90;1.00;;;;;;10436070;28;85184;-60
2022/04/04 06:14:11;;;;;;;;;;;4.00;1.00;;;;;;10455123;27;85071;-62
2022/04/04 06:19:11;;;;;;;;;;;4.10;1.00;;;;;;10436716;28;84907;-62
2022/04/04 06:24:12;;;;;;;;;;;4.20;1.00;;;;;;10454863;27;84088;-63
2022/04/04 06:29:12;;;;;;;;;;;4.20;1.00;;;;;;10434732;28;85100;-63
2022/04/04 06:34:13;;;;;;;;;;;4.20;1.00;;;;;;10417163;27;91089;-63
2022/04/04 06:39:14;;;;;;;;;;;4.20;1.00;;;;;;10433346;28;84021;-63
2022/04/04 06:44:16;;;;;;;;;;;4.20;1.00;;;;;;10454847;28;85106;-64
2022/04/04 06:49:16;;;;;;;;;;;4.20;1.00;;;;;;10441805;28;84123;-63
2022/04/04 06:54:18;;;;;;;;;;;4.20;1.00;;;;;;10439208;28;84804;-62
2022/04/04 06:59:18;;;;;;;;;;;4.30;1.00;;;;;;10452651;28;84151;-63
2022/04/04 07:04:19;;;;;;;;;;;4.40;1.00;;;;;;10444218;28;84954;-63
2022/04/04 07:09:19;;;;;;;;;;;4.50;1.00;;;;;;10416430;28;84177;-64
2022/04/04 07:14:20;;;;;;;;;;;4.70;1.00;;;;;;10433719;22;84905;-59
2022/04/04 07:19:22;;;;;;;;;;;4.80;1.00;;;;;;10415139;28;84921;-55
2022/04/04 07:24:23;;;;;;;;;;;4.90;1.00;;;;;;10381651;28;84850;-62
2022/04/04 07:29:23;;;;;;;;;;;5.10;1.00;;;;;;10349866;28;84701;-56
2022/04/04 07:34:24;;;;;;;;;;;5.20;1.00;;;;;;10373794;28;84689;-53
2022/04/04 07:39:24;;;;;;;;;;;5.40;1.00;;;;;;10377928;28;85104;-53
2022/04/04 07:44:25;;;;;;;;;;;5.60;1.00;;;;;;10373265;28;84886;-52
2022/04/04 07:49:26;;;;;;;;;;;5.60;1.00;;;;;;10360231;28;85955;-49
2022/04/04 07:54:26;;;;;;;;;;;5.70;1.00;;;;;;10389503;28;84154;-49
2022/04/04 07:59:27;;;;;;;;;;;5.80;1.00;;;;;;10391825;28;84743;-52
2022/04/04 08:04:27;;;;;;;;;;;5.90;1.00;;;;;;10391957;28;84223;-53
2022/04/04 08:09:28;;;;;;;;;;;5.90;1.00;;;;;;10401079;28;84222;-50
2022/04/04 08:14:28;;;;;;;;;;;5.90;1.00;;;;;;10408951;28;84891;-52
2022/04/04 08:19:30;;;;;;;;;;;6.20;1.00;;;;;;10409020;28;84906;-52
2022/04/04 08:24:30;;;;;;;;;;;6.30;1.00;;;;;;10409995;28;84161;-53
2022/04/04 08:29:31;;;;;;;;;;;6.30;1.00;;;;;;10408840;28;84758;-52
2022/04/04 08:34:31;;;;;;;;;;;6.40;1.00;;;;;;10391756;28;87074;-50
2022/04/04 08:39:32;;;;;;;;;;;6.60;1.00;;;;;;10391665;28;85011;-50
2022/04/04 08:44:36;;;;;;;;;;;6.60;1.00;;;;;;10390942;28;85945;-50
2022/04/04 08:49:37;;;;;;;;;;;6.60;1.00;;;;;;10408404;28;84912;-50
2022/04/04 08:54:37;;;;;;;;;;;6.60;1.00;;;;;;10413695;28;84266;-50
2022/04/04 08:59:38;;;;;;;;;;;6.80;1.00;;;;;;10415838;28;84782;-48
2022/04/04 09:04:40;;;;;;;;;;;6.70;1.00;;;;;;10398144;28;84084;-53
2022/04/04 09:09:41;;;;;;;;;;;6.60;1.00;;;;;;10415703;28;84912;-55
2022/04/04 09:14:43;;;;;;;;;;;6.80;1.00;;;;;;10415655;28;84785;-51
2022/04/04 09:19:44;;;;;;;;;;;6.70;1.00;;;;;;10414931;28;85056;-51
2022/04/04 09:24:46;;;;;;;;;;;6.40;1.00;;;;;;10415952;28;84814;-49
2022/04/04 09:29:48;;;;;;;;;;;6.30;1.00;;;;;;10396555;28;84782;-49
2022/04/04 09:35:01;;;;;;;;;;;6.00;1.00;;;;;;10414942;28;84854;-53
2022/04/04 09:40:08;;;;;;;;;;;5.90;1.00;;;;;;10414619;28;84170;-51
2022/04/04 09:45:10;;;;;;;;;;;5.80;25.20;;;;;;10396826;28;86731;-54
2022/04/04 09:50:27;;;;;;;;;;;5.70;99.90;;;;;;10396852;28;84190;-48
2022/04/04 09:55:28;;;;;;;;;;;5.50;99.90;;;;;;10411509;28;85183;-48
2022/04/04 10:00:29;;;;;;;;;;;5.60;99.90;;;;;;10414627;28;84303;-52
2022/04/04 10:05:30;;;;;;;;;;;5.60;99.90;;;;;;10413540;28;84869;-49
2022/04/04 10:10:31;;;;;;;;;;;5.70;99.90;;;;;;10414338;28;84223;-51
2022/04/04 10:15:34;;;;;;;;;;;5.70;99.90;;;;;;10393570;28;84088;-51
2022/04/04 10:20:35;;;;;;;;;;;5.80;94.90;;;;;;10396342;28;84650;-50
2022/04/04 10:25:35;;;;;;;;;;;5.90;23.40;;;;;;10413107;28;83985;-48
2022/04/04 10:30:42;;;;;;;;;;;5.80;89.40;;;;;;10413567;28;85290;-49
2022/04/04 10:35:43;;;;;;;;;;;5.70;99.90;;;;;;10412742;28;85047;-49
2022/04/04 10:40:44;;;;;;;;;;;5.60;99.90;;;;;;10413027;28;84891;-49
2022/04/04 10:45:56;;;;;;;;;;;5.60;99.90;;;;;;10393973;28;84083;-50
2022/04/04 10:51:09;;;;;;;;;;;5.50;99.90;;;;;;10412931;28;84004;-50
2022/04/04 10:56:11;;;;;;;;;;;5.60;99.90;;;;;;10411580;28;84948;-49
2022/04/04 11:01:15;;;;;;;;;;;5.60;99.90;;;;;;10412592;28;85266;-50
2022/04/04 11:11:54;;;;;;;;;;;5.60;99.90;;;;;;10411911;28;84922;-52
2022/04/04 11:17:06;;;;;;;;;;;5.60;99.90;;;;;;10409492;28;85817;-53
2022/04/04 11:22:07;;;;;;;;;;;5.70;99.90;;;;;;10413590;28;84802;-52
2022/04/04 11:27:08;;;;;;;;;;;5.90;99.90;;;;;;10414224;28;84016;-52
2022/04/04 11:32:15;;;;;;;;;;;5.90;99.90;;;;;;10416561;28;84783;-49
2022/04/04 11:37:19;;;;;;;;;;;5.80;99.90;;;;;;10396262;28;85814;-51
2022/04/04 11:42:22;;;;;;;;;;;5.80;99.90;;;;;;10395333;28;86365;-53
2022/04/04 11:47:23;;;;;;;;;;;5.80;99.90;;;;;;10411606;28;84078;-50
2022/04/04 11:52:25;;;;;;;;;;;5.70;99.90;;;;;;10393647;28;84928;-52
2022/04/04 11:57:26;;;;;;;;;;;5.80;99.90;;;;;;10392380;28;84836;-53
2022/04/04 12:02:30;;;;;;;;;;;5.80;99.90;;;;;;10411044;28;84114;-49
2022/04/04 12:07:33;;;;;;;;;;;5.70;99.90;;;;;;10409545;28;84254;-49
2022/04/04 12:12:33;;;;;;;;;;;5.70;99.90;;;;;;10409672;28;84733;-52
2022/04/04 12:17:34;;;;;;;;;;;5.80;99.90;;;;;;10408396;28;84168;-53
2022/04/04 12:27:58;;;;;;;;;;;5.70;99.90;;;;;;10394611;28;84786;-49
2022/04/04 12:33:08;;;;;;;;;;;5.70;99.90;;;;;;10398774;28;86781;-48
2022/04/04 12:38:09;;;;;;;;;;;5.60;99.90;;;;;;10416324;28;84723;-55
2022/04/04 12:43:11;;;;;;;;;;;5.70;99.90;;;;;;10417614;28;84902;-49
2022/04/04 12:48:12;;;;;;;;;;;5.80;99.90;;;;;;10416605;28;84830;-55
2022/04/04 12:53:14;;;;;;;;;;;5.80;99.90;;;;;;10416616;28;84254;-51
2022/04/04 12:58:19;;;;;;;;;;;5.80;99.90;;;;;;10416294;28;84221;-55
2022/04/04 13:03:22;;;;;;;;;;;5.80;99.90;;;;;;10398603;28;84741;-49
2022/04/04 13:08:27;;;;;;;;;;;5.80;99.90;;;;;;10397098;28;87153;-49
2022/04/04 13:13:28;;;;;;;;;;;5.80;99.90;;;;;;10433362;22;85577;-59
2022/04/04 13:18:28;;;;;;;;;;;5.80;99.90;;;;;;10372685;28;84306;-60
2022/04/04 13:23:29;;;;;;;;;;;5.70;99.90;;;;;;10373160;28;84164;-58
2022/04/04 13:28:29;;;;;;;;;;;5.70;99.90;;;;;;10353970;28;85101;-59
2022/04/04 13:33:30;;;;;;;;;;;5.70;99.90;;;;;;10354533;28;84434;-60
2022/04/04 13:38:30;;;;;;;;;;;5.80;99.90;;;;;;10371365;28;84206;-59
2022/04/04 13:43:31;;;;;;;;;;;5.80;99.90;;;;;;10372287;28;84109;-57
2022/04/04 13:48:32;;;;;;;;;;;5.80;99.90;;;;;;10371104;28;84781;-60
2022/04/04 13:53:33;;;;;;;;;;;5.80;99.90;;;;;;10353844;28;84226;-59
2022/04/04 13:58:34;;;;;;;;;;;5.70;99.90;;;;;;10371362;28;84705;-60
2022/04/04 14:03:35;;;;;;;;;;;5.60;99.90;;;;;;10371635;28;84040;-60
2022/04/04 14:08:38;;;;;;;;;;;5.50;99.90;;;;;;10371335;28;84288;-58
2022/04/04 14:13:40;;;;;;;;;;;5.50;99.90;;;;;;10370832;28;84534;-60
2022/04/04 14:18:40;;;;;;;;;;;5.50;99.90;;;;;;10370603;28;84921;-59
2022/04/04 14:23:43;;;;;;;;;;;5.50;99.90;;;;;;10371319;28;84096;-60
2022/04/04 14:28:44;;;;;;;;;;;5.50;99.90;;;;;;10370539;28;84078;-59
2022/04/04 14:33:44;;;;;;;;;;;5.40;99.90;;;;;;10370731;28;83977;-59
2022/04/04 14:38:45;;;;;;;;;;;5.50;99.90;;;;;;10370421;28;84948;-59
2022/04/04 14:43:46;;;;;;;;;;;5.50;99.90;;;;;;10370305;28;84049;-59
2022/04/04 14:48:46;;;;;;;;;;;5.50;99.90;;;;;;10351036;28;87109;-59
2022/04/04 14:53:47;;;;;;;;;;;5.50;99.90;;;;;;10369363;28;84960;-57
2022/04/04 14:58:47;;;;;;;;;;;5.50;99.90;;;;;;10369366;28;84239;-60
2022/04/04 15:03:48;;;;;;;;;;;5.50;99.90;;;;;;10369832;28;85092;-58
2022/04/04 15:08:49;;;;;;;;;;;5.50;99.90;;;;;;10370384;28;84347;-60
2022/04/04 15:13:49;;;;;;;;;;;5.50;99.90;;;;;;10370403;28;84103;-59
2022/04/04 15:18:50;;;;;;;;;;;5.60;99.90;;;;;;10370766;28;84067;-59
2022/04/04 15:23:50;;;;;;;;;;;5.60;99.90;;;;;;10370644;28;84139;-60
2022/04/04 15:28:51;;;;;;;;;;;5.60;99.90;;;;;;10371012;28;84739;-60
2022/04/04 15:33:51;;;;;;;;;;;5.70;99.90;;;;;;10374449;28;85242;-60
2022/04/04 15:38:53;;;;;;;;;;;5.70;99.90;;;;;;10369953;28;85022;-59
2022/04/04 15:43:54;;;;;;;;;;;5.70;99.90;;;;;;10397862;28;84182;-59
2022/04/04 15:48:55;;;;;;;;;;;5.70;99.90;;;;;;10404057;28;84281;-59
2022/04/04 15:53:56;;;;;;;;;;;5.70;99.90;;;;;;10393174;28;84873;-57
2022/04/04 15:58:57;;;;;;;;;;;5.70;99.90;;;;;;10414166;28;84937;-56
2022/04/04 16:03:58;;;;;;;;;;;5.80;99.90;;;;;;10410462;28;84888;-56
2022/04/04 16:09:02;;;;;;;;;;;5.90;99.90;;;;;;10393617;28;85761;-58
2022/04/04 16:14:03;;;;;;;;;;;5.90;99.90;;;;;;10395858;28;84321;-57
2022/04/04 16:19:03;;;;;;;;;;;5.90;99.90;;;;;;10411044;28;85022;-57
2022/04/04 16:24:04;;;;;;;;;;;5.90;99.90;;;;;;10410083;28;84932;-56
2022/04/04 16:29:05;;;;;;;;;;;5.90;99.90;;;;;;10391233;28;87342;-59
2022/04/04 16:34:07;;;;;;;;;;;6.00;99.90;;;;;;10395485;28;84529;-59
2022/04/04 16:39:09;;;;;;;;;;;6.10;99.90;;;;;;10367590;28;84221;-57
2022/04/04 16:44:10;;;;;;;;;;;6.10;99.90;;;;;;10367110;28;84283;-58
2022/04/04 16:49:11;;;;;;;;;;;6.10;99.90;;;;;;10349725;28;84897;-55
2022/04/04 16:54:11;;;;;;;;;;;6.10;99.90;;;;;;10355248;28;84316;-57
2022/04/04 16:59:12;;;;;;;;;;;6.10;99.90;;;;;;10328658;28;85431;-52
2022/04/04 17:04:19;;;;;;;;;;;6.10;99.90;;;;;;10329225;28;84791;-54
2022/04/04 17:09:19;;;;;;;;;;;6.10;99.90;;;;;;10338332;28;84484;-51
2022/04/04 17:14:20;;;;;;;;;;;6.10;99.90;;;;;;10338831;28;85142;-54
2022/04/04 17:19:22;;;;;;;;;;;6.20;99.90;;;;;;10334327;28;87251;-55
2022/04/04 17:24:23;;;;;;;;;;;6.30;99.90;;;;;;10307312;28;87155;-53
2022/04/04 17:29:24;;;;;;;;;;;6.30;99.90;;;;;;10333239;28;84282;-56
2022/04/04 17:34:24;;;;;;;;;;;6.30;99.90;;;;;;10314769;28;86043;-55
2022/04/04 17:39:25;;;;;;;;;;;6.40;99.90;;;;;;10331384;28;84264;-52
2022/04/04 17:44:28;;;;;;;;;;;6.40;99.90;;;;;;10330395;28;84260;-56
2022/04/04 17:49:29;;;;;;;;;;;6.50;99.90;;;;;;10333051;28;84030;-56
2022/04/04 17:54:29;;;;;;;;;;;6.50;99.90;;;;;;10335938;28;84129;-54
2022/04/04 17:59:30;;;;;;;;;;;6.50;99.90;;;;;;10346978;28;84628;-52
2022/04/04 18:04:33;;;;;;;;;;;6.60;99.90;;;;;;10360986;28;85979;-54
2022/04/04 18:09:34;;;;;;;;;;;6.60;99.90;;;;;;10372705;28;84804;-56
2022/04/04 18:14:38;;;;;;;;;;;6.60;99.90;;;;;;10378408;28;84342;-55
2022/04/04 18:19:38;;;;;;;;;;;6.70;99.90;;;;;;10376025;28;84848;-56
2022/04/04 18:24:39;;;;;;;;;;;6.70;99.90;;;;;;10394090;28;84886;-53
2022/04/04 18:29:39;;;;;;;;;;;6.70;99.90;;;;;;10402190;28;84144;-54
2022/04/04 18:34:40;;;;;;;;;;;6.80;99.90;;;;;;10416334;28;84171;-55
2022/04/04 18:39:41;;;;;;;;;;;6.80;99.90;;;;;;10414691;28;84263;-55
2022/04/04 18:44:42;;;;;;;;;;;6.80;99.90;;;;;;10398010;28;84899;-54
2022/04/04 18:49:42;;;;;;;;;;;6.80;99.90;;;;;;10345111;28;85005;-53
2022/04/04 18:54:44;;;;;;;;;;;6.90;99.90;;;;;;10322899;28;86010;-52
2022/04/04 18:59:45;;;;;;;;;;;6.90;99.90;;;;;;10361659;28;84182;-55
2022/04/04 19:04:48;;;;;;;;;;;7.00;99.90;;;;;;10371192;28;84008;-53
2022/04/04 19:09:48;;;;;;;;;;;7.00;99.90;;;;;;10370862;28;84346;-52
2022/04/04 19:14:49;;;;;;;;;;;7.00;99.90;;;;;;10415904;22;84415;-50
2022/04/04 19:19:50;;;;;;;;;;;7.00;99.90;;;;;;10431908;27;84715;-48
2022/04/04 19:24:51;;;;;;;;;;;7.00;99.90;;;;;;10456921;27;85027;-48
2022/04/04 19:29:52;;;;;;;;;;;7.00;99.90;;;;;;10407967;28;84522;-49
2022/04/04 19:34:52;;;;;;;;;;;7.10;99.90;;;;;;10395302;28;87071;-50
2022/04/04 19:39:53;;;;;;;;;;;7.10;99.90;;;;;;10393714;28;86008;-64
2022/04/04 19:44:53;;;;;;;;;;;7.00;99.90;;;;;;10410850;28;85109;-54
2022/04/04 19:49:54;;;;;;;;;;;7.20;99.90;;;;;;10412832;28;84234;-56
2022/04/04 19:54:56;;;;;;;;;;;7.20;99.90;;;;;;10404769;28;84496;-49
2022/04/04 19:59:57;;;;;;;;;;;7.20;99.90;;;;;;10398518;28;85496;-52
2022/04/04 20:04:57;;;;;;;;;;;7.30;99.90;;;;;;10409525;28;84546;-48
2022/04/04 20:09:59;;;;;;;;;;;7.30;99.90;;;;;;10383952;28;86003;-52
2022/04/04 20:15:00;;;;;;;;;;;7.30;99.90;;;;;;10435162;27;84930;-49
2022/04/04 20:20:00;;;;;;;;;;;7.30;99.90;;;;;;10391023;28;84279;-51
2022/04/04 20:25:01;;;;;;;;;;;7.40;99.90;;;;;;10411558;28;85195;-51
2022/04/04 20:30:02;;;;;;;;;;;7.30;99.90;;;;;;10411023;28;84199;-48
2022/04/04 20:35:06;;;;;;;;;;;7.40;99.90;;;;;;10410154;28;84819;-49
2022/04/04 20:40:07;;;;;;;;;;;7.50;99.90;;;;;;10410670;28;84766;-51
2022/04/04 20:45:12;;;;;;;;;;;7.50;99.90;;;;;;10414992;28;84482;-48
2022/04/04 20:50:13;;;;;;;;;;;7.60;99.90;;;;;;10417014;28;86423;-48
2022/04/04 20:55:14;;;;;;;;;;;7.50;99.90;;;;;;10417086;28;83989;-49
2022/04/04 21:00:17;;;;;;;;;;;7.60;99.90;;;;;;10416957;28;85016;-49
2022/04/04 21:05:17;;;;;;;;;;;7.60;99.90;;;;;;10390785;28;85497;-49
2022/04/04 21:10:19;;;;;;;;;;;7.60;99.90;;;;;;10416450;28;90161;-49
2022/04/04 21:15:19;;;;;;;;;;;7.60;99.90;;;;;;10417514;28;84463;-51
2022/04/04 21:20:20;;;;;;;;;;;7.60;99.90;;;;;;10417699;28;84095;-51
2022/04/04 21:25:21;;;;;;;;;;;7.70;99.90;;;;;;10417131;28;84126;-49
2022/04/04 21:30:23;;;;;;;;;;;7.70;99.90;;;;;;10415362;28;84768;-50
2022/04/04 21:35:24;;;;;;;;;;;7.70;99.90;;;;;;10415065;28;84368;-47
2022/04/04 21:40:24;;;;;;;;;;;7.70;99.90;;;;;;10414991;28;85057;-48
2022/04/04 21:45:25;;;;;;;;;;;7.70;99.90;;;;;;10414470;28;86510;-46
2022/04/04 21:50:26;;;;;;;;;;;7.70;99.90;;;;;;10415066;28;84028;-48
2022/04/04 21:55:26;;;;;;;;;;;7.70;99.90;;;;;;10413275;28;84625;-52
2022/04/04 22:00:28;;;;;;;;;;;7.80;99.90;;;;;;10395994;28;84788;-48
2022/04/04 22:05:29;;;;;;;;;;;7.90;99.90;;;;;;10413289;28;85108;-47
2022/04/04 22:10:30;;;;;;;;;;;7.90;99.90;;;;;;10414337;28;84836;-46
2022/04/04 22:15:30;;;;;;;;;;;7.90;99.90;;;;;;10413165;28;84295;-48
2022/04/04 22:20:31;;;;;;;;;;;7.90;99.90;;;;;;10395533;28;85645;-47
2022/04/04 22:25:32;;;;;;;;;;;7.90;99.90;;;;;;10412851;28;85070;-48
2022/04/04 22:30:32;;;;;;;;;;;7.90;99.90;;;;;;10395194;28;87160;-47
2022/04/04 22:35:33;;;;;;;;;;;7.90;99.90;;;;;;10412603;28;84217;-48
2022/04/04 22:40:33;;;;;;;;;;;7.90;99.90;;;;;;10412981;28;84027;-49
2022/04/04 22:45:34;;;;;;;;;;;7.90;99.90;;;;;;10411461;28;86375;-48
2022/04/04 22:50:35;;;;;;;;;;;7.90;99.90;;;;;;10413090;28;84961;-47
2022/04/04 22:55:36;;;;;;;;;;;8.00;99.90;;;;;;10411508;28;84117;-49
2022/04/04 23:00:36;;;;;;;;;;;8.00;99.90;;;;;;10412782;28;84696;-49
2022/04/04 23:05:37;;;;;;;;;;;8.00;99.90;;;;;;10409864;28;84974;-49
2022/04/04 23:10:37;;;;;;;;;;;8.00;99.90;;;;;;10410391;28;102408;-49
2022/04/04 23:15:37;;;;;;;;;;;8.00;99.90;;;;;;10409731;28;94009;-52
2022/04/04 23:20:38;;;;;;;;;;;8.00;99.90;;;;;;10412823;28;84829;-48
2022/04/04 23:25:38;;;;;;;;;;;8.00;99.90;;;;;;10410161;28;106778;-48
2022/04/04 23:30:39;;;;;;;;;;;8.10;99.90;;;;;;10411171;28;84126;-48
2022/04/04 23:35:39;;;;;;;;;;;8.10;99.90;;;;;;10410391;28;84910;-49
2022/04/04 23:40:40;;;;;;;;;;;8.10;99.90;;;;;;10409129;28;87011;-53
2022/04/04 23:45:40;;;;;;;;;;;8.20;99.90;;;;;;10410348;28;84318;-50
2022/04/04 23:50:41;;;;;;;;;;;8.20;99.90;;;;;;10411007;28;84914;-49
2022/04/04 23:55:42;;;;;;;;;;;8.20;99.90;;;;;;10410114;28;84178;-52
